createdAt,value
2019-05-26T00:04:12.318Z,14.67
2019-05-26T00:09:06.051Z,15.30
2019-05-26T00:13:59.613Z,14.67
2019-05-26T00:18:53.109Z,15.40
2019-05-26T00:23:46.989Z,16.27
2019-05-26T00:28:40.332Z,21.40
2019-05-26T00:33:33.701Z,12.37
2019-05-26T00:38:27.104Z,12.80
2019-05-26T00:43:20.459Z,20.13
2019-05-26T00:48:13.868Z,21.17
2019-05-26T00:53:07.208Z,22.53
2019-05-26T00:58:00.555Z,25.67
2019-05-26T01:02:53.946Z,23.80
2019-05-26T01:07:47.405Z,26.10
2019-05-26T01:12:40.764Z,26.20
2019-05-26T01:17:34.115Z,24.37
2019-05-26T01:22:27.860Z,30.53
2019-05-26T01:27:21.414Z,29.32
2019-05-26T01:32:14.762Z,30.60
2019-05-26T01:37:08.128Z,33.08
2019-05-26T01:42:01.666Z,31.50
2019-05-26T01:46:54.999Z,32.10
2019-05-26T01:51:48.438Z,34.63
2019-05-26T01:56:41.763Z,37.20
2019-05-26T02:01:35.242Z,35.80
2019-05-26T02:06:28.583Z,40.83
2019-05-26T02:11:22.225Z,42.87
2019-05-26T02:16:15.587Z,38.40
2019-05-26T02:21:08.986Z,36.53
2019-05-26T02:26:02.352Z,36.80
2019-05-26T02:30:55.751Z,43.17
2019-05-26T02:35:49.111Z,35.70
2019-05-26T02:40:42.476Z,41.13
2019-05-26T02:45:35.851Z,44.53
2019-05-26T02:50:29.193Z,39.80
2019-05-26T02:55:22.536Z,37.53
2019-05-26T03:00:17.322Z,40.10
2019-05-26T03:05:10.686Z,36.53
2019-05-26T03:10:04.351Z,36.80
2019-05-26T03:14:57.708Z,36.50
2019-05-26T03:19:51.564Z,36.37
2019-05-26T03:24:45.035Z,38.67
2019-05-26T03:29:38.479Z,36.33
2019-05-26T03:34:32.199Z,34.90
2019-05-26T03:39:42.257Z,39.07
2019-05-26T03:44:18.867Z,34.97
2019-05-26T03:49:12.569Z,28.30
2019-05-26T03:54:05.916Z,25.23
2019-05-26T03:58:59.497Z,19.90
2019-05-26T04:03:52.811Z,19.50
2019-05-26T04:08:46.208Z,20.47
2019-05-26T04:13:39.961Z,15.80
2019-05-26T04:18:33.267Z,13.53
2019-05-26T04:23:26.662Z,12.67
2019-05-26T04:28:21.046Z,12.07
2019-05-26T04:33:14.597Z,13.77
2019-05-26T04:38:08.216Z,11.53
2019-05-26T04:43:01.560Z,11.40
2019-05-26T04:47:54.896Z,10.67
2019-05-26T04:53:05.642Z,11.03
2019-05-26T04:57:41.557Z,7.20
2019-05-26T05:02:34.888Z,10.63
2019-05-26T05:07:28.763Z,8.83
2019-05-26T05:12:21.542Z,11.00
2019-05-26T05:17:14.873Z,7.03
2019-05-26T05:22:08.299Z,8.10
2019-05-26T05:27:01.636Z,9.90
2019-05-26T05:31:55.066Z,9.30
2019-05-26T05:36:48.388Z,9.17
2019-05-26T05:41:42.443Z,9.50
2019-05-26T05:46:35.786Z,8.23
2019-05-26T05:51:29.217Z,7.73
2019-05-26T05:56:22.928Z,8.80
2019-05-26T06:01:16.569Z,7.90
2019-05-26T06:06:09.896Z,9.00
2019-05-26T06:11:16.074Z,6.00
2019-05-26T06:16:00.070Z,9.23
2019-05-26T06:20:56.504Z,8.77
2019-05-26T06:25:49.845Z,8.80
2019-05-26T06:30:45.006Z,10.30
2019-05-26T06:35:38.351Z,10.63
2019-05-26T06:40:31.704Z,8.23
2019-05-26T06:45:25.041Z,8.00
2019-05-26T06:50:18.755Z,6.93
2019-05-26T06:55:12.272Z,10.60
2019-05-26T07:00:05.637Z,9.47
2019-05-26T07:04:59.199Z,10.67
2019-05-26T07:09:52.793Z,9.20
2019-05-26T07:14:46.228Z,9.40
2019-05-26T07:19:39.863Z,7.80
2019-05-26T07:24:33.205Z,8.83
2019-05-26T07:29:26.617Z,11.23
2019-05-26T07:34:19.960Z,8.80
2019-05-26T07:39:13.384Z,10.93
2019-05-26T07:44:06.834Z,8.63
2019-05-26T07:49:00.634Z,12.17
2019-05-26T07:53:56.114Z,14.83
2019-05-26T07:58:47.311Z,10.23
2019-05-26T08:03:41.178Z,12.30
2019-05-26T08:08:34.515Z,12.03
2019-05-26T08:13:28.169Z,21.30
2019-05-26T08:18:21.901Z,28.20
2019-05-26T08:23:15.839Z,27.13
2019-05-26T08:28:09.017Z,26.63
2019-05-26T08:33:02.781Z,31.20
2019-05-26T08:37:56.117Z,25.70
2019-05-26T08:42:50.126Z,19.93
2019-05-26T08:47:43.508Z,27.90
2019-05-26T08:52:36.917Z,22.17
2019-05-26T08:57:30.243Z,18.77
2019-05-26T09:02:23.578Z,20.20
2019-05-26T09:07:16.959Z,26.05
2019-05-26T09:12:10.349Z,21.30
2019-05-26T09:17:03.694Z,18.17
2019-05-26T09:21:57.083Z,23.53
2019-05-26T09:26:50.400Z,26.67
2019-05-26T09:31:44.205Z,19.43
2019-05-26T09:36:37.546Z,17.27
2019-05-26T09:41:30.916Z,17.87
2019-05-26T09:46:25.577Z,20.47
2019-05-26T09:51:19.219Z,13.00
2019-05-26T09:56:12.582Z,13.97
2019-05-26T10:01:05.910Z,11.37
2019-05-26T10:05:59.261Z,12.70
2019-05-26T10:10:52.757Z,11.27
2019-05-26T10:15:46.213Z,18.47
2019-05-26T10:20:39.562Z,13.77
2019-05-26T10:25:32.912Z,13.07
2019-05-26T10:30:26.284Z,15.17
2019-05-26T10:35:19.679Z,13.40
2019-05-26T10:40:13.557Z,19.27
2019-05-26T10:45:06.934Z,18.03
2019-05-26T10:50:00.698Z,14.20
2019-05-26T10:54:54.234Z,17.63
2019-05-26T10:59:48.067Z,13.57
2019-05-26T11:04:41.439Z,15.37
2019-05-26T11:09:34.801Z,12.23
2019-05-26T11:14:28.147Z,14.68
2019-05-26T11:19:21.499Z,17.17
2019-05-26T11:24:14.866Z,14.63
2019-05-26T11:29:08.343Z,14.00
2019-05-26T11:34:01.696Z,17.73
2019-05-26T11:38:55.086Z,18.10
2019-05-26T11:43:48.416Z,15.83
2019-05-26T11:48:41.889Z,17.00
2019-05-26T11:53:35.226Z,15.60
2019-05-26T11:58:28.615Z,13.50
2019-05-26T12:03:21.946Z,16.43
2019-05-26T12:08:15.448Z,12.40
2019-05-26T12:13:08.793Z,15.07
2019-05-26T12:18:02.423Z,11.80
2019-05-26T12:22:55.742Z,12.90
2019-05-26T12:27:49.066Z,11.97
2019-05-26T12:32:42.398Z,15.83
2019-05-26T12:37:35.701Z,13.90
2019-05-26T12:42:29.023Z,13.80
2019-05-26T12:47:22.336Z,12.43
2019-05-26T12:52:15.777Z,13.50
2019-05-26T12:57:09.083Z,12.27
2019-05-26T13:02:02.539Z,16.90
2019-05-26T13:06:55.961Z,12.63
2019-05-26T13:11:49.612Z,17.67
2019-05-26T13:16:43.017Z,10.83
2019-05-26T13:21:36.664Z,15.77
2019-05-26T13:26:30.003Z,14.93
2019-05-26T13:31:23.736Z,10.37
2019-05-26T13:36:17.088Z,13.13
2019-05-26T13:41:10.792Z,10.23
2019-05-26T13:46:04.137Z,6.67
2019-05-26T13:50:57.477Z,12.77
2019-05-26T13:55:51.279Z,5.60
2019-05-26T14:00:44.938Z,11.37
2019-05-26T14:05:38.280Z,14.43
2019-05-26T14:10:32.341Z,10.67
2019-05-26T14:15:37.333Z,10.73
2019-05-26T14:20:19.374Z,8.70
2019-05-26T14:25:15.665Z,11.40
2019-05-26T14:30:06.117Z,13.37
2019-05-26T14:34:59.474Z,12.23
2019-05-26T14:39:52.918Z,19.27
2019-05-26T14:44:46.267Z,11.60
2019-05-26T14:49:39.691Z,9.50
2019-05-26T14:54:33.138Z,9.37
2019-05-26T14:59:26.703Z,12.10
2019-05-26T15:04:20.008Z,13.17
2019-05-26T15:09:24.739Z,11.10
2019-05-26T15:14:06.839Z,16.20
2019-05-26T15:19:00.543Z,15.07
2019-05-26T15:23:53.891Z,15.30
2019-05-26T15:28:47.488Z,12.73
2019-05-26T15:33:40.982Z,18.37
2019-05-26T15:38:43.156Z,14.90
2019-05-26T15:43:27.709Z,18.23
2019-05-26T15:48:21.118Z,13.83
2019-05-26T15:53:14.473Z,21.67
2019-05-26T15:58:07.900Z,12.67
2019-05-26T16:03:01.580Z,11.43
2019-05-26T16:07:54.917Z,8.73
2019-05-26T16:12:48.241Z,7.35
2019-05-26T16:17:41.859Z,8.00
2019-05-26T16:22:35.691Z,11.23
2019-05-26T16:27:29.041Z,6.60
2019-05-26T16:32:22.467Z,7.93
2019-05-26T16:37:15.819Z,10.47
2019-05-26T16:42:09.423Z,6.10
2019-05-26T16:47:03.132Z,9.57
2019-05-26T16:51:59.508Z,9.00
2019-05-26T16:56:52.841Z,13.47
2019-05-26T17:01:46.397Z,9.50
2019-05-26T17:06:39.747Z,10.20
2019-05-26T17:11:33.091Z,9.57
2019-05-26T17:16:26.417Z,11.73
2019-05-26T17:21:19.926Z,8.13
2019-05-26T17:26:13.275Z,8.70
2019-05-26T17:31:06.702Z,9.83
2019-05-26T17:36:00.050Z,10.40
2019-05-26T17:40:53.743Z,14.43
2019-05-26T17:45:47.094Z,13.43
2019-05-26T17:50:40.446Z,9.60
2019-05-26T17:55:33.827Z,10.90
2019-05-26T18:00:27.186Z,8.20
2019-05-26T18:05:20.534Z,10.93
2019-05-26T18:10:13.878Z,11.60
2019-05-26T18:15:07.348Z,12.67
2019-05-26T18:20:01.223Z,10.40
2019-05-26T18:24:58.356Z,11.13
2019-05-26T18:29:48.166Z,11.17
2019-05-26T18:34:41.506Z,11.40
2019-05-26T18:39:35.237Z,13.00
2019-05-26T18:44:28.584Z,11.20
2019-05-26T18:49:22.209Z,10.73
2019-05-26T18:54:15.542Z,12.33
2019-05-26T18:59:09.044Z,11.33
2019-05-26T19:04:02.402Z,10.20
2019-05-26T19:08:55.804Z,14.67
2019-05-26T19:13:49.146Z,9.03
2019-05-26T19:18:42.570Z,10.10
2019-05-26T19:23:35.911Z,9.20
2019-05-26T19:28:29.316Z,10.83
2019-05-26T19:33:22.637Z,8.77
2019-05-26T19:38:16.072Z,7.90
2019-05-26T19:43:09.396Z,8.03
2019-05-26T19:48:02.713Z,8.10
2019-05-26T19:52:56.023Z,7.73
2019-05-26T19:57:49.344Z,10.60
2019-05-26T20:02:42.992Z,7.47
2019-05-26T20:07:36.320Z,10.03
2019-05-26T20:12:29.626Z,8.27
2019-05-26T20:17:22.973Z,8.97
2019-05-26T20:22:16.492Z,8.67
2019-05-26T20:27:09.866Z,6.77
2019-05-26T20:32:03.568Z,9.20
2019-05-26T20:36:56.889Z,7.47
2019-05-26T20:41:50.614Z,7.47
2019-05-26T20:46:43.978Z,8.27
2019-05-26T20:51:37.346Z,9.17
2019-05-26T20:56:30.669Z,7.07
2019-05-26T21:01:24.167Z,11.80
2019-05-26T21:06:17.507Z,9.47
2019-05-26T21:11:10.886Z,8.37
2019-05-26T21:16:04.219Z,9.07
2019-05-26T21:20:57.666Z,7.50
2019-05-26T21:25:51.018Z,8.77
2019-05-26T21:30:44.347Z,7.87
2019-05-26T21:35:37.683Z,8.83
2019-05-26T21:40:31.173Z,10.13
2019-05-26T21:45:24.507Z,9.53
2019-05-26T21:50:17.862Z,9.83
2019-05-26T21:55:11.324Z,7.57
2019-05-26T22:00:05.648Z,11.57
2019-05-26T22:04:58.989Z,15.33
2019-05-26T22:09:52.665Z,14.90
2019-05-26T22:14:46.016Z,12.77
2019-05-26T22:19:40.345Z,10.90
2019-05-26T22:24:33.692Z,11.10
2019-05-26T22:29:27.086Z,13.73
2019-05-26T22:34:20.442Z,14.77
2019-05-26T22:39:14.106Z,16.30
2019-05-26T22:44:07.437Z,15.70
2019-05-26T22:49:00.786Z,19.57
2019-05-26T22:53:54.129Z,14.87
2019-05-26T22:58:47.474Z,20.23
2019-05-26T23:03:40.810Z,16.30
2019-05-26T23:08:34.186Z,14.33
2019-05-26T23:13:27.854Z,16.27
2019-05-26T23:18:21.182Z,14.90
2019-05-26T23:23:14.909Z,16.77
2019-05-26T23:28:08.243Z,14.30
2019-05-26T23:33:01.572Z,19.07
2019-05-26T23:37:54.913Z,14.13
2019-05-26T23:42:48.252Z,16.07
2019-05-26T23:47:41.611Z,13.20
2019-05-26T23:52:35.006Z,19.17
2019-05-26T23:57:28.338Z,16.90
